Time;durP1;ratioP1;P1;durP2;ratioP2;P2;SDS_P1;SDS_P2;PMS_P1;PMS_P2;Temp;Humidity;BMP_temperature;BMP_pressure;BME280_temperature;BME280_humidity;BME280_pressure;Samples;Min_cycle;Max_cycle;Signal;HPM_P1;HPM_P2
2023/06/11 00:01:15;;;;;;;5.95;4.10;;;25.00;85.30;;;;;;4173526;28;20494;-60
2023/06/11 00:03:20;;;;;;;5.50;3.90;;;24.90;85.80;;;;;;4188877;28;20037;-62
2023/06/11 00:05:21;;;;;;;5.43;4.20;;;24.80;85.40;;;;;;4181891;28;20025;-60
2023/06/11 00:07:22;;;;;;;6.88;4.40;;;24.70;85.80;;;;;;4180519;28;20047;-61
2023/06/11 00:09:23;;;;;;;5.75;4.20;;;24.70;86.60;;;;;;4192141;28;20040;-60
2023/06/11 00:11:25;;;;;;;6.35;4.70;;;24.60;85.60;;;;;;4190012;28;20120;-60
2023/06/11 00:13:27;;;;;;;6.65;4.85;;;24.50;85.90;;;;;;4183338;28;20481;-60
2023/06/11 00:15:27;;;;;;;5.25;4.22;;;24.30;86.00;;;;;;4181033;28;20140;-60
2023/06/11 00:17:32;;;;;;;6.45;4.45;;;24.10;86.60;;;;;;4177130;28;20037;-61
2023/06/11 00:19:32;;;;;;;5.90;4.80;;;24.00;87.00;;;;;;4190539;28;20033;-60
2023/06/11 00:21:33;;;;;;;4.38;3.80;;;23.80;87.30;;;;;;4170378;28;20040;-60
2023/06/11 00:23:36;;;;;;;6.18;4.28;;;23.80;87.70;;;;;;4177820;28;20129;-61
2023/06/11 00:25:36;;;;;;;5.13;4.13;;;23.70;88.30;;;;;;4188681;28;20126;-61
2023/06/11 00:27:37;;;;;;;6.55;4.40;;;23.60;88.70;;;;;;4186237;28;20029;-61
2023/06/11 00:29:38;;;;;;;5.85;4.30;;;23.50;89.10;;;;;;4183303;28;20121;-61
2023/06/11 00:31:39;;;;;;;8.05;4.68;;;23.40;89.60;;;;;;4176846;28;20033;-61
2023/06/11 00:33:39;;;;;;;6.50;4.45;;;23.20;90.00;;;;;;4180981;28;20056;-60
2023/06/11 00:35:40;;;;;;;5.85;4.47;;;23.20;90.10;;;;;;4181380;28;20036;-60
2023/06/11 00:37:42;;;;;;;5.18;4.10;;;23.10;90.30;;;;;;4180702;28;20033;-60
2023/06/11 00:39:42;;;;;;;7.13;4.22;;;23.00;90.30;;;;;;4190886;28;20033;-60
2023/06/11 00:41:48;;;;;;;7.80;4.60;;;23.00;90.50;;;;;;4178202;28;20119;-60
2023/06/11 00:43:52;;;;;;;10.38;4.68;;;22.90;90.60;;;;;;4188205;28;20036;-60
2023/06/11 00:45:52;;;;;;;6.13;4.45;;;22.90;90.70;;;;;;4179420;28;20032;-60
2023/06/11 00:47:53;;;;;;;7.88;4.85;;;22.80;90.60;;;;;;4174019;28;20403;-60
2023/06/11 00:49:54;;;;;;;5.93;5.00;;;22.80;90.80;;;;;;4165797;28;20031;-60
2023/06/11 00:51:54;;;;;;;8.18;4.70;;;22.80;90.90;;;;;;4175086;28;20476;-60
2023/06/11 00:53:55;;;;;;;6.45;4.30;;;22.80;90.90;;;;;;4188915;28;20036;-60
2023/06/11 00:55:56;;;;;;;6.47;4.65;;;22.80;90.90;;;;;;4171304;28;20029;-60
2023/06/11 00:57:57;;;;;;;5.80;4.60;;;22.80;90.90;;;;;;4178738;28;20029;-61
2023/06/11 00:59:57;;;;;;;6.43;4.88;;;22.80;90.90;;;;;;4184449;28;20155;-60
2023/06/11 01:02:18;;;;;;;6.22;4.68;;;22.70;91.00;;;;;;4178371;28;20503;-60
2023/06/11 01:04:23;;;;;;;5.78;4.90;;;22.70;91.10;;;;;;4178669;28;20492;-60
2023/06/11 01:06:28;;;;;;;7.93;4.75;;;22.60;91.30;;;;;;4169648;28;20025;-60
2023/06/11 01:08:31;;;;;;;6.18;4.90;;;22.50;91.50;;;;;;4189718;28;20036;-60
2023/06/11 01:10:33;;;;;;;11.68;4.82;;;22.50;91.70;;;;;;4185845;28;20031;-60
2023/06/11 01:12:34;;;;;;;6.60;4.65;;;22.40;91.80;;;;;;4192257;28;20124;-60
2023/06/11 01:14:35;;;;;;;6.68;4.88;;;22.40;91.90;;;;;;4177128;28;20033;-60
2023/06/11 01:16:52;;;;;;;7.20;4.85;;;22.40;92.00;;;;;;4177419;28;20041;-61
2023/06/11 01:19:03;;;;;;;6.40;5.10;;;22.30;92.20;;;;;;4192208;28;20498;-60
2023/06/11 01:21:12;;;;;;;8.80;5.72;;;22.20;92.30;;;;;;4182633;28;20059;-60
2023/06/11 01:24:00;;;;;;;6.43;4.45;;;22.10;92.50;;;;;;4185447;28;20067;-60
2023/06/11 01:26:36;;;;;;;8.50;5.50;;;22.00;92.80;;;;;;4136428;28;20066;-60
2023/06/11 01:28:38;;;;;;;8.35;5.22;;;21.90;93.00;;;;;;4177305;28;20040;-61
2023/06/11 01:30:51;;;;;;;9.82;5.40;;;21.80;93.10;;;;;;4175733;28;20530;-60
2023/06/11 01:32:53;;;;;;;7.45;5.35;;;21.80;93.30;;;;;;4185811;28;20496;-60
2023/06/11 01:35:03;;;;;;;8.68;6.00;;;21.70;93.50;;;;;;4180878;28;20080;-60
2023/06/11 01:37:05;;;;;;;8.25;5.60;;;21.60;93.60;;;;;;4163302;28;20403;-60
2023/06/11 01:39:05;;;;;;;7.03;5.15;;;21.60;93.80;;;;;;4175577;28;20033;-63
2023/06/11 01:41:06;;;;;;;8.15;4.85;;;21.50;94.00;;;;;;4178004;28;20098;-62
2023/06/11 01:43:06;;;;;;;6.90;5.07;;;21.60;94.10;;;;;;4177473;28;20041;-60
2023/06/11 01:45:07;;;;;;;6.53;4.90;;;21.60;94.00;;;;;;4179364;28;20033;-62
2023/06/11 01:47:08;;;;;;;8.23;5.47;;;21.60;93.90;;;;;;4188797;28;20064;-61
2023/06/11 01:49:09;;;;;;;6.90;5.25;;;21.60;94.00;;;;;;4172367;28;20029;-61
2023/06/11 01:51:13;;;;;;;6.32;4.85;;;21.60;94.00;;;;;;4184829;28;20086;-60
2023/06/11 01:53:16;;;;;;;6.03;4.60;;;21.60;94.00;;;;;;4186969;28;20047;-60
2023/06/11 01:55:16;;;;;;;6.75;4.90;;;21.70;93.90;;;;;;4189823;28;20033;-61
2023/06/11 01:57:17;;;;;;;6.60;5.05;;;21.70;93.80;;;;;;4194108;28;20087;-60
2023/06/11 01:59:18;;;;;;;5.93;4.63;;;21.70;93.80;;;;;;4191138;28;20128;-60
2023/06/11 02:01:20;;;;;;;7.25;5.13;;;21.80;93.90;;;;;;4176603;28;20045;-60
2023/06/11 02:03:20;;;;;;;8.60;5.13;;;21.70;94.00;;;;;;4177315;28;20048;-60
2023/06/11 02:05:21;;;;;;;8.48;5.45;;;21.70;94.00;;;;;;4185029;28;20033;-60
2023/06/11 02:07:22;;;;;;;7.55;5.28;;;21.70;94.10;;;;;;4187338;28;20025;-60
2023/06/11 02:09:23;;;;;;;7.32;5.03;;;21.80;93.90;;;;;;4178006;28;20033;-60
2023/06/11 02:11:23;;;;;;;7.32;5.22;;;21.70;94.00;;;;;;4183651;28;20064;-60
2023/06/11 02:13:30;;;;;;;6.75;5.07;;;21.70;94.20;;;;;;4180901;28;20044;-60
2023/06/11 02:15:30;;;;;;;7.85;5.90;;;21.60;94.30;;;;;;4175866;28;20412;-60
2023/06/11 02:17:31;;;;;;;9.57;5.85;;;21.50;94.50;;;;;;4180433;28;20077;-60
2023/06/11 02:19:32;;;;;;;6.63;5.30;;;21.50;94.70;;;;;;4173683;28;20044;-60
2023/06/11 02:21:32;;;;;;;7.43;5.68;;;21.50;94.90;;;;;;4178614;28;20476;-60
2023/06/11 02:23:33;;;;;;;7.80;5.82;;;21.40;95.00;;;;;;4184164;28;20044;-61
2023/06/11 02:25:33;;;;;;;8.00;5.35;;;21.40;95.10;;;;;;4190242;28;20037;-60
2023/06/11 02:27:34;;;;;;;6.78;4.93;;;21.30;95.20;;;;;;4190959;28;20675;-60
2023/06/11 02:29:35;;;;;;;8.20;5.40;;;21.30;95.20;;;;;;4190401;28;20487;-60
2023/06/11 02:31:35;;;;;;;7.45;4.80;;;21.30;95.20;;;;;;4184493;28;20029;-60
2023/06/11 02:33:36;;;;;;;6.28;5.30;;;21.40;95.10;;;;;;4184606;28;20041;-60
2023/06/11 02:35:37;;;;;;;6.82;4.85;;;21.40;95.10;;;;;;4190550;28;20067;-60
2023/06/11 02:37:37;;;;;;;6.65;4.93;;;21.40;95.10;;;;;;4185351;28;20036;-61
2023/06/11 02:39:38;;;;;;;7.18;5.03;;;21.40;95.10;;;;;;4175053;28;20488;-65
2023/06/11 02:41:38;;;;;;;9.15;5.25;;;21.40;95.10;;;;;;4177475;28;20122;-61
2023/06/11 02:43:39;;;;;;;6.05;4.85;;;21.40;95.20;;;;;;4182325;28;20056;-60
2023/06/11 02:45:40;;;;;;;7.22;5.63;;;21.40;95.20;;;;;;4174388;28;20059;-60
2023/06/11 02:47:40;;;;;;;6.25;4.80;;;21.30;95.40;;;;;;4182383;28;20029;-60
2023/06/11 02:49:41;;;;;;;7.85;5.50;;;21.30;95.60;;;;;;4178184;28;20614;-61
2023/06/11 02:51:41;;;;;;;10.00;5.95;;;21.20;95.80;;;;;;4188470;28;20101;-60
2023/06/11 02:53:42;;;;;;;6.95;5.43;;;21.10;96.10;;;;;;4178187;28;20047;-60
2023/06/11 02:55:43;;;;;;;7.65;5.55;;;21.10;96.30;;;;;;4180479;28;20033;-60
2023/06/11 02:57:43;;;;;;;8.93;5.65;;;21.10;96.40;;;;;;4186968;28;20086;-60
2023/06/11 02:59:44;;;;;;;8.23;5.80;;;21.00;96.50;;;;;;4186392;28;20032;-60
2023/06/11 03:01:45;;;;;;;9.48;6.30;;;20.90;96.60;;;;;;4178019;28;20037;-60
2023/06/11 03:03:45;;;;;;;7.18;5.70;;;20.80;96.70;;;;;;4174729;28;20412;-60
2023/06/11 03:05:46;;;;;;;8.38;5.90;;;20.80;96.90;;;;;;4185324;28;20029;-60
2023/06/11 03:07:47;;;;;;;8.82;6.00;;;20.80;96.90;;;;;;4189943;28;20041;-61
2023/06/11 03:09:47;;;;;;;7.90;5.80;;;20.70;96.90;;;;;;4174793;28;20037;-61
2023/06/11 03:11:48;;;;;;;9.55;6.35;;;20.60;97.10;;;;;;4172804;28;20117;-60
2023/06/11 03:13:48;;;;;;;7.72;5.95;;;20.50;97.50;;;;;;4185271;28;20028;-60
2023/06/11 03:15:49;;;;;;;8.35;5.97;;;20.50;97.70;;;;;;4172165;28;20392;-60
2023/06/11 03:17:50;;;;;;;6.68;5.22;;;20.50;97.80;;;;;;4186908;28;20036;-60
2023/06/11 03:19:50;;;;;;;8.60;6.40;;;20.50;97.80;;;;;;4184183;28;20032;-60
2023/06/11 03:21:51;;;;;;;8.55;6.07;;;20.60;97.90;;;;;;4175171;28;20033;-60
2023/06/11 03:23:52;;;;;;;9.27;6.22;;;20.50;97.80;;;;;;4177902;28;20064;-60
2023/06/11 03:25:52;;;;;;;8.95;6.40;;;20.50;97.70;;;;;;4183765;28;21626;-60
2023/06/11 03:27:53;;;;;;;8.80;6.93;;;20.50;97.80;;;;;;4190675;28;20075;-60
2023/06/11 03:29:53;;;;;;;10.55;6.70;;;20.40;98.00;;;;;;4188344;28;20480;-60
2023/06/11 03:31:54;;;;;;;11.02;7.03;;;20.40;98.10;;;;;;4188368;28;20620;-60
2023/06/11 03:33:55;;;;;;;8.15;6.22;;;20.40;98.30;;;;;;4180240;28;20033;-60
2023/06/11 03:35:55;;;;;;;8.55;5.82;;;20.30;98.30;;;;;;4177355;28;20025;-60
2023/06/11 03:37:56;;;;;;;6.97;5.60;;;20.40;98.30;;;;;;4190119;28;20029;-60
2023/06/11 03:39:56;;;;;;;6.82;4.93;;;20.50;98.20;;;;;;4182132;28;20166;-60
2023/06/11 03:41:57;;;;;;;6.35;5.18;;;20.60;98.10;;;;;;4186733;28;20044;-60
2023/06/11 03:43:58;;;;;;;6.68;5.13;;;20.60;98.00;;;;;;4180989;28;20071;-60
2023/06/11 03:45:58;;;;;;;5.65;4.88;;;20.70;97.90;;;;;;4169024;28;20037;-60
2023/06/11 03:48:02;;;;;;;6.35;5.45;;;20.70;97.90;;;;;;4178694;28;20037;-60
2023/06/11 03:50:04;;;;;;;8.70;5.80;;;20.70;97.80;;;;;;4171323;28;20024;-61
2023/06/11 03:52:05;;;;;;;6.20;5.25;;;20.70;97.90;;;;;;4180738;28;20438;-60
2023/06/11 03:54:06;;;;;;;9.50;6.05;;;20.70;97.90;;;;;;4188429;28;20044;-60
2023/06/11 03:56:07;;;;;;;10.63;5.72;;;20.60;98.10;;;;;;4173836;28;20041;-61
2023/06/11 03:58:07;;;;;;;8.95;5.65;;;20.60;98.30;;;;;;4190032;28;20039;-60
2023/06/11 04:00:09;;;;;;;7.07;5.38;;;20.50;98.40;;;;;;4175847;28;20396;-62
2023/06/11 04:02:09;;;;;;;7.38;5.55;;;20.50;98.60;;;;;;4180399;28;20048;-60
2023/06/11 04:04:10;;;;;;;8.57;5.78;;;20.50;98.60;;;;;;4190692;28;20047;-59
2023/06/11 04:06:10;;;;;;;6.63;5.13;;;20.50;98.70;;;;;;4168283;28;20116;-60
2023/06/11 04:08:11;;;;;;;5.93;4.80;;;20.50;98.80;;;;;;4188633;28;20021;-60
2023/06/11 04:10:13;;;;;;;6.93;4.82;;;20.50;98.80;;;;;;4176529;28;20063;-60
2023/06/11 04:12:13;;;;;;;5.28;4.70;;;20.50;98.90;;;;;;4181910;28;20082;-60
2023/06/11 04:14:14;;;;;;;5.88;4.82;;;20.60;98.90;;;;;;4182629;28;20116;-60
2023/06/11 04:16:14;;;;;;;7.20;5.15;;;20.60;99.00;;;;;;4178241;28;20033;-60
2023/06/11 04:18:15;;;;;;;7.63;4.78;;;20.70;98.90;;;;;;4187953;28;20072;-60
2023/06/11 04:20:15;;;;;;;8.43;5.13;;;20.70;99.00;;;;;;4165031;28;20044;-60
2023/06/11 04:22:16;;;;;;;7.38;5.55;;;20.80;99.00;;;;;;4177685;28;20055;-60
2023/06/11 04:24:17;;;;;;;5.45;4.93;;;20.80;98.90;;;;;;4172255;28;20486;-63
2023/06/11 04:26:19;;;;;;;9.50;5.80;;;20.80;99.20;;;;;;4172371;28;20177;-61
2023/06/11 04:28:21;;;;;;;7.85;5.60;;;20.70;99.00;;;;;;4190565;28;20017;-60
2023/06/11 04:30:21;;;;;;;8.02;5.50;;;20.80;99.20;;;;;;4176072;28;20033;-60
2023/06/11 04:32:26;;;;;;;6.15;4.53;;;20.90;99.30;;;;;;4176268;28;20127;-60
2023/06/11 04:34:29;;;;;;;5.68;4.85;;;21.00;99.30;;;;;;4190699;28;20107;-60
2023/06/11 04:36:29;;;;;;;9.02;5.32;;;21.00;99.40;;;;;;4176694;28;20034;-60
2023/06/11 04:38:30;;;;;;;6.35;4.90;;;21.00;99.20;;;;;;4183672;28;20035;-60
2023/06/11 04:40:33;;;;;;;6.38;5.13;;;21.10;99.40;;;;;;4179899;28;20045;-60
2023/06/11 04:42:34;;;;;;;6.75;5.05;;;21.10;99.10;;;;;;4173341;28;20083;-60
2023/06/11 04:44:36;;;;;;;6.82;5.30;;;21.10;99.70;;;;;;4180964;28;20039;-60
2023/06/11 04:46:38;;;;;;;6.80;5.13;;;21.20;99.00;;;;;;4179530;28;20033;-60
2023/06/11 04:48:38;;;;;;;6.13;4.90;;;21.20;99.50;;;;;;4181355;28;20032;-60
2023/06/11 04:50:39;;;;;;;10.93;5.30;;;21.20;99.70;;;;;;4179581;28;20037;-60
2023/06/11 04:52:42;;;;;;;8.30;5.35;;;21.20;99.50;;;;;;4181729;28;20528;-60
2023/06/11 04:54:45;;;;;;;6.57;5.32;;;21.10;99.30;;;;;;4174119;28;20029;-60
2023/06/11 04:56:45;;;;;;;8.25;5.65;;;21.20;99.90;;;;;;4185145;28;20063;-60
2023/06/11 04:58:46;;;;;;;5.43;4.65;;;21.20;99.90;;;;;;4187892;28;20026;-60
2023/06/11 05:00:50;;;;;;;8.32;5.22;;;21.30;99.90;;;;;;4175228;28;20040;-60
2023/06/11 05:02:51;;;;;;;7.70;5.53;;;21.30;99.90;;;;;;4182322;28;20586;-60
2023/06/11 05:04:53;;;;;;;7.60;5.00;;;21.30;99.90;;;;;;4179309;28;20436;-60
2023/06/11 05:06:54;;;;;;;6.82;4.95;;;21.40;99.90;;;;;;4176685;28;20064;-60
2023/06/11 05:08:55;;;;;;;6.43;4.88;;;21.50;99.90;;;;;;4178690;28;20506;-60
2023/06/11 05:10:59;;;;;;;7.05;4.93;;;21.60;99.70;;;;;;4179650;28;20060;-60
2023/06/11 05:13:00;;;;;;;6.55;5.05;;;21.70;99.40;;;;;;4181516;28;20536;-61
2023/06/11 05:15:00;;;;;;;7.07;4.60;;;21.70;98.70;;;;;;4175820;28;20072;-60
2023/06/11 05:17:01;;;;;;;6.43;4.78;;;21.80;98.50;;;;;;4189615;28;20044;-61
2023/06/11 05:19:02;;;;;;;7.00;4.85;;;21.90;98.50;;;;;;4177276;28;20048;-60
2023/06/11 05:21:03;;;;;;;6.93;4.60;;;22.00;97.90;;;;;;4171594;28;20288;-60
2023/06/11 05:23:04;;;;;;;5.13;4.50;;;22.10;97.90;;;;;;4164959;28;20045;-60
2023/06/11 05:25:05;;;;;;;6.68;4.95;;;22.10;97.80;;;;;;4178227;28;20056;-61
2023/06/11 05:27:06;;;;;;;6.72;4.55;;;22.20;97.10;;;;;;4174440;28;20045;-60
2023/06/11 05:29:06;;;;;;;6.93;4.90;;;22.30;97.30;;;;;;4176189;28;21250;-60
2023/06/11 05:31:11;;;;;;;6.82;4.97;;;22.30;97.00;;;;;;4169261;28;20132;-60
2023/06/11 05:33:16;;;;;;;8.95;5.40;;;22.40;97.00;;;;;;4184932;28;20045;-60
2023/06/11 05:35:17;;;;;;;9.13;5.30;;;22.50;96.80;;;;;;4180472;28;20034;-61
2023/06/11 05:37:18;;;;;;;6.65;5.18;;;22.50;96.60;;;;;;4182071;28;20075;-61
2023/06/11 05:39:19;;;;;;;5.95;4.68;;;22.60;96.80;;;;;;4187347;28;20112;-61
2023/06/11 05:41:21;;;;;;;6.97;4.40;;;22.70;96.90;;;;;;4180879;28;20037;-60
2023/06/11 05:43:23;;;;;;;6.72;5.18;;;22.80;96.90;;;;;;4185730;28;20036;-60
2023/06/11 05:45:25;;;;;;;8.57;4.85;;;22.80;96.50;;;;;;4185210;28;20037;-60
2023/06/11 05:47:25;;;;;;;7.90;5.15;;;22.90;96.60;;;;;;4181239;28;20042;-61
2023/06/11 05:49:26;;;;;;;6.60;4.85;;;23.10;96.60;;;;;;4184497;28;20040;-60
2023/06/11 05:51:27;;;;;;;7.90;4.72;;;23.50;96.10;;;;;;4183208;28;20128;-60
2023/06/11 05:53:27;;;;;;;8.00;4.38;;;23.90;95.70;;;;;;4177275;28;20124;-60
2023/06/11 05:55:28;;;;;;;5.80;4.60;;;24.30;95.00;;;;;;4189237;28;20503;-61
2023/06/11 05:57:28;;;;;;;6.72;4.30;;;24.70;94.60;;;;;;4179214;28;20439;-61
2023/06/11 05:59:29;;;;;;;6.03;4.35;;;25.10;94.00;;;;;;4173155;28;20443;-61
2023/06/11 06:01:32;;;;;;;5.70;3.88;;;25.60;93.50;;;;;;4179555;28;20074;-61
2023/06/11 06:03:33;;;;;;;5.63;3.85;;;25.90;93.00;;;;;;4188623;28;20120;-61
2023/06/11 06:05:34;;;;;;;5.97;3.88;;;26.40;92.20;;;;;;4185951;28;20067;-61
2023/06/11 06:07:35;;;;;;;6.32;3.70;;;26.80;91.50;;;;;;4181759;28;20045;-61
2023/06/11 06:09:36;;;;;;;5.13;3.97;;;27.30;91.10;;;;;;4177060;28;20079;-61
2023/06/11 06:11:36;;;;;;;7.18;4.40;;;27.70;90.40;;;;;;4178829;28;20044;-62
2023/06/11 06:13:37;;;;;;;5.32;4.05;;;28.00;88.70;;;;;;4187689;28;20041;-61
2023/06/11 06:15:38;;;;;;;4.88;3.80;;;28.20;88.10;;;;;;4177964;28;20369;-62
2023/06/11 06:17:38;;;;;;;6.63;3.90;;;28.60;87.70;;;;;;4193160;28;22422;-61
2023/06/11 06:19:39;;;;;;;8.50;4.13;;;28.70;85.70;;;;;;4175838;28;20040;-62
2023/06/11 06:21:39;;;;;;;5.93;3.53;;;28.80;84.90;;;;;;4179380;28;20095;-62
2023/06/11 06:23:40;;;;;;;5.70;4.28;;;28.90;83.70;;;;;;4187572;28;20045;-61
2023/06/11 06:25:41;;;;;;;4.72;3.13;;;28.80;82.90;;;;;;4183615;28;20085;-62
2023/06/11 06:27:42;;;;;;;3.97;3.28;;;28.90;82.00;;;;;;4179079;28;20075;-62
2023/06/11 06:29:42;;;;;;;4.30;3.38;;;28.90;81.40;;;;;;4183339;28;20036;-62
2023/06/11 06:31:43;;;;;;;4.60;3.65;;;28.90;80.90;;;;;;4186681;28;20036;-62
2023/06/11 06:33:44;;;;;;;4.15;3.55;;;28.80;81.40;;;;;;4172911;28;20044;-62
2023/06/11 06:35:44;;;;;;;4.20;3.80;;;28.90;81.90;;;;;;4180218;28;20029;-62
2023/06/11 06:37:45;;;;;;;4.25;3.30;;;28.80;80.50;;;;;;4186157;28;20029;-62
2023/06/11 06:39:46;;;;;;;8.50;3.72;;;28.80;81.00;;;;;;4185956;28;20116;-62
2023/06/11 06:41:46;;;;;;;4.03;3.30;;;28.80;82.50;;;;;;4183586;28;20045;-62
2023/06/11 06:43:47;;;;;;;4.00;3.25;;;28.70;80.80;;;;;;4177371;28;20041;-62
2023/06/11 06:45:49;;;;;;;6.85;3.80;;;28.80;81.20;;;;;;4187758;28;20352;-62
2023/06/11 06:47:49;;;;;;;4.22;3.83;;;28.80;81.00;;;;;;4191225;28;20039;-62
2023/06/11 06:49:50;;;;;;;6.00;3.75;;;28.80;80.50;;;;;;4183676;28;20434;-63
2023/06/11 06:51:51;;;;;;;4.50;3.35;;;28.80;81.00;;;;;;4182113;28;20076;-62
2023/06/11 06:53:52;;;;;;;6.22;3.85;;;28.80;80.60;;;;;;4180519;28;20099;-62
2023/06/11 06:55:53;;;;;;;5.38;3.28;;;28.70;81.60;;;;;;4184982;28;20446;-63
2023/06/11 06:57:53;;;;;;;4.72;3.70;;;28.70;81.20;;;;;;4181827;28;20045;-62
2023/06/11 06:59:54;;;;;;;5.38;3.30;;;28.50;80.40;;;;;;4177799;28;20656;-62
2023/06/11 07:01:54;;;;;;;4.00;3.25;;;28.70;80.80;;;;;;4184823;28;20066;-62
2023/06/11 07:03:55;;;;;;;5.43;3.40;;;28.50;79.50;;;;;;4183141;28;20041;-62
2023/06/11 07:05:56;;;;;;;4.15;3.42;;;28.50;79.20;;;;;;4185908;28;20036;-62
2023/06/11 07:07:56;;;;;;;3.78;3.25;;;28.40;79.80;;;;;;4181695;28;20079;-62
2023/06/11 07:09:57;;;;;;;4.18;3.40;;;28.40;79.90;;;;;;4180414;28;20068;-62
2023/06/11 07:11:57;;;;;;;4.10;3.70;;;28.50;79.80;;;;;;4177120;28;20492;-62
2023/06/11 07:13:58;;;;;;;5.75;3.80;;;28.50;80.10;;;;;;4190108;28;20035;-62
2023/06/11 07:15:58;;;;;;;4.50;3.50;;;28.50;78.30;;;;;;4172404;28;20041;-62
2023/06/11 07:17:59;;;;;;;4.38;3.35;;;28.40;78.80;;;;;;4173878;28;20025;-62
2023/06/11 07:20:00;;;;;;;6.95;3.80;;;28.50;79.20;;;;;;4169920;28;20033;-62
2023/06/11 07:22:01;;;;;;;7.13;3.78;;;28.40;78.90;;;;;;4172568;28;20037;-62
2023/06/11 07:24:04;;;;;;;4.22;3.35;;;28.50;79.80;;;;;;4182949;28;20032;-62
2023/06/11 07:26:05;;;;;;;5.25;3.80;;;28.50;79.10;;;;;;4177486;28;20067;-62
2023/06/11 07:28:06;;;;;;;4.80;3.72;;;28.50;78.60;;;;;;4178473;28;20040;-62
2023/06/11 07:30:07;;;;;;;5.97;3.80;;;28.50;79.20;;;;;;4178312;28;20495;-62
2023/06/11 07:32:08;;;;;;;4.15;3.55;;;28.40;78.50;;;;;;4175127;28;20045;-62
2023/06/11 07:34:08;;;;;;;5.53;3.55;;;28.40;78.60;;;;;;4190647;28;20418;-62
2023/06/11 07:36:09;;;;;;;5.38;3.60;;;28.40;78.50;;;;;;4178882;28;20033;-62
2023/06/11 07:38:09;;;;;;;5.15;3.83;;;28.40;78.50;;;;;;4183224;28;20082;-62
2023/06/11 07:40:12;;;;;;;4.60;3.33;;;28.50;78.20;;;;;;4182919;28;20517;-63
2023/06/11 07:42:12;;;;;;;3.65;3.20;;;28.50;78.10;;;;;;4190461;28;20033;-62
2023/06/11 07:44:13;;;;;;;5.70;3.45;;;28.60;79.30;;;;;;4177366;28;20052;-62
2023/06/11 07:46:17;;;;;;;6.05;3.40;;;28.60;77.60;;;;;;4176244;28;20037;-62
2023/06/11 07:48:17;;;;;;;4.13;3.28;;;28.50;77.70;;;;;;4185259;28;20442;-62
2023/06/11 07:50:18;;;;;;;4.60;3.90;;;28.60;77.90;;;;;;4182927;28;20040;-62
2023/06/11 07:52:18;;;;;;;3.47;3.17;;;28.60;78.30;;;;;;4184393;28;20093;-62
2023/06/11 07:54:19;;;;;;;5.97;3.47;;;28.60;78.80;;;;;;4178479;28;20037;-62
2023/06/11 07:56:19;;;;;;;4.15;3.17;;;28.60;79.30;;;;;;4186088;28;20029;-62
2023/06/11 07:58:20;;;;;;;3.75;3.33;;;28.70;78.70;;;;;;4184197;28;20451;-62
2023/06/11 08:00:22;;;;;;;4.88;3.63;;;28.70;79.90;;;;;;4181082;28;20044;-62
2023/06/11 08:02:22;;;;;;;8.60;3.42;;;28.80;78.80;;;;;;4176931;28;20052;-62
2023/06/11 08:04:24;;;;;;;4.60;3.28;;;28.80;79.20;;;;;;4170625;28;20041;-62
2023/06/11 08:06:25;;;;;;;3.65;2.85;;;28.80;77.70;;;;;;4170600;28;20037;-62
2023/06/11 08:08:25;;;;;;;8.13;3.40;;;28.80;77.00;;;;;;4169709;28;20501;-63
2023/06/11 08:10:26;;;;;;;4.43;3.35;;;28.90;77.00;;;;;;4170725;28;20049;-62
2023/06/11 08:12:26;;;;;;;6.25;3.45;;;28.90;77.50;;;;;;4172395;28;20043;-62
2023/06/11 08:14:27;;;;;;;3.35;3.00;;;29.00;78.60;;;;;;4169996;28;20564;-62
2023/06/11 08:16:28;;;;;;;7.35;3.38;;;29.10;77.00;;;;;;4175830;28;20387;-63
2023/06/11 08:18:28;;;;;;;4.03;3.05;;;29.10;77.00;;;;;;4174244;28;20661;-62
2023/06/11 08:20:29;;;;;;;4.43;3.42;;;29.10;77.10;;;;;;4185144;28;20370;-62
2023/06/11 08:22:30;;;;;;;5.63;3.70;;;29.20;77.40;;;;;;4185741;28;20048;-65
2023/06/11 08:24:31;;;;;;;5.22;3.67;;;29.20;77.50;;;;;;4178003;28;20033;-65
2023/06/11 08:26:31;;;;;;;5.00;3.47;;;29.20;76.90;;;;;;4172161;28;20040;-64
2023/06/11 08:28:32;;;;;;;5.55;3.58;;;29.20;76.30;;;;;;4181552;28;20033;-65
2023/06/11 08:30:32;;;;;;;5.05;3.53;;;29.20;77.10;;;;;;4182425;28;20037;-65
2023/06/11 08:32:33;;;;;;;3.72;3.25;;;29.20;77.00;;;;;;4185551;28;20043;-65
2023/06/11 08:34:34;;;;;;;5.22;3.72;;;29.30;77.30;;;;;;4181022;28;20048;-64
2023/06/11 08:36:34;;;;;;;4.28;3.20;;;29.30;78.00;;;;;;4179756;28;20048;-64
2023/06/11 08:38:35;;;;;;;3.70;3.08;;;29.30;77.30;;;;;;4191834;28;20042;-64
2023/06/11 08:40:42;;;;;;;4.47;3.20;;;29.30;77.80;;;;;;4190531;28;20036;-64
2023/06/11 08:42:42;;;;;;;4.50;3.25;;;29.30;75.70;;;;;;4177504;28;20045;-65
2023/06/11 08:44:43;;;;;;;5.30;3.67;;;29.30;75.20;;;;;;4171429;28;20060;-64
2023/06/11 08:46:44;;;;;;;5.35;3.17;;;29.40;75.70;;;;;;4178609;28;20036;-64
2023/06/11 08:48:45;;;;;;;4.03;3.63;;;29.40;75.00;;;;;;4181548;28;20408;-65
2023/06/11 08:50:50;;;;;;;3.83;3.15;;;29.30;74.60;;;;;;4189137;28;20035;-64
2023/06/11 08:52:54;;;;;;;4.68;3.33;;;29.30;75.50;;;;;;4186644;28;20037;-65
2023/06/11 08:54:54;;;;;;;4.78;3.55;;;29.40;75.90;;;;;;4176045;28;20464;-65
2023/06/11 08:56:55;;;;;;;4.18;3.20;;;29.40;75.90;;;;;;4183258;28;20025;-65
2023/06/11 08:58:58;;;;;;;3.92;3.30;;;29.40;75.00;;;;;;4175641;28;20094;-65
2023/06/11 09:00:58;;;;;;;;;;;29.30;75.30;;;;;;4185311;28;20036;-65
2023/06/11 09:02:59;;;;;;;5.70;3.55;;;29.40;75.10;;;;;;4183217;28;19920;-65
2023/06/11 09:05:00;;;;;;;3.42;2.97;;;29.30;75.80;;;;;;4175570;28;20128;-64
2023/06/11 09:07:02;;;;;;;8.45;3.80;;;29.30;75.60;;;;;;4178206;28;20032;-65
2023/06/11 09:09:07;;;;;;;4.07;3.40;;;29.30;74.80;;;;;;4188881;28;20032;-64
2023/06/11 09:11:08;;;;;;;3.85;3.28;;;29.30;74.00;;;;;;4190442;28;20491;-64
2023/06/11 09:13:08;;;;;;;4.38;3.15;;;29.30;76.00;;;;;;4188657;28;20202;-64
2023/06/11 09:15:09;;;;;;;4.53;3.10;;;29.40;75.00;;;;;;4175387;28;20045;-66
2023/06/11 09:17:15;;;;;;;4.63;3.72;;;29.40;74.00;;;;;;4185235;28;20033;-64
2023/06/11 09:19:16;;;;;;;5.18;3.33;;;29.30;74.50;;;;;;4196071;28;20089;-64
2023/06/11 09:21:17;;;;;;;4.85;3.10;;;29.40;74.70;;;;;;4186990;28;20033;-64
2023/06/11 09:23:29;;;;;;;3.85;2.92;;;29.40;74.80;;;;;;4176706;28;20674;-64
2023/06/11 09:25:31;;;;;;;3.17;2.88;;;29.50;74.30;;;;;;4175029;28;20669;-65
2023/06/11 09:27:32;;;;;;;5.45;3.35;;;29.50;74.40;;;;;;4178875;28;20379;-65
2023/06/11 09:29:34;;;;;;;3.95;3.20;;;29.50;74.60;;;;;;4182023;28;20033;-64
2023/06/11 09:31:35;;;;;;;3.47;3.17;;;29.40;73.40;;;;;;4171592;28;20120;-64
2023/06/11 09:33:36;;;;;;;4.28;3.30;;;29.50;74.30;;;;;;4181647;28;20072;-64
2023/06/11 09:35:43;;;;;;;5.32;3.28;;;29.40;75.00;;;;;;4182610;28;20026;-64
2023/06/11 09:37:46;;;;;;;6.45;3.22;;;29.30;74.60;;;;;;4186532;28;20431;-64
2023/06/11 09:39:47;;;;;;;8.35;4.00;;;29.30;74.80;;;;;;4186845;28;20055;-65
2023/06/11 09:41:49;;;;;;;4.65;3.10;;;29.40;74.00;;;;;;4186732;28;20468;-65
2023/06/11 09:43:51;;;;;;;4.30;2.90;;;29.40;75.00;;;;;;4173454;28;20123;-65
2023/06/11 09:45:54;;;;;;;4.18;3.25;;;29.40;73.80;;;;;;4176548;28;20385;-64
2023/06/11 09:47:55;;;;;;;;;;;29.60;74.50;;;;;;4189286;28;20495;-65
2023/06/11 09:50:00;;;;;;;3.42;3.10;;;29.60;73.90;;;;;;4183490;28;19908;-64
2023/06/11 09:52:02;;;;;;;3.45;3.15;;;29.70;74.30;;;;;;4180822;28;20434;-64
2023/06/11 09:54:04;;;;;;;4.13;3.40;;;29.70;74.40;;;;;;4188398;28;20051;-65
2023/06/11 09:56:06;;;;;;;3.80;2.80;;;29.90;72.90;;;;;;4175976;28;20429;-64
2023/06/11 09:58:06;;;;;;;5.37;3.30;;;29.90;73.60;;;;;;4185598;28;20615;-65
2023/06/11 10:00:13;;;;;;;4.15;3.30;;;29.90;72.80;;;;;;4182069;28;20618;-65
2023/06/11 10:02:14;;;;;;;5.13;2.80;;;30.00;73.30;;;;;;4178680;28;20179;-65
2023/06/11 10:04:15;;;;;;;4.57;3.17;;;30.00;72.70;;;;;;4191043;28;20112;-65
2023/06/11 10:06:21;;;;;;;3.83;2.88;;;30.10;73.20;;;;;;4173396;28;20040;-65
2023/06/11 10:08:24;;;;;;;4.70;3.17;;;30.10;73.70;;;;;;4175340;28;20037;-65
2023/06/11 10:10:26;;;;;;;4.25;3.47;;;30.20;71.50;;;;;;4180353;28;20040;-65
2023/06/11 10:12:32;;;;;;;2.67;2.47;;;30.10;71.70;;;;;;4182833;28;20037;-65
2023/06/11 10:14:34;;;;;;;4.50;3.03;;;30.20;73.50;;;;;;4176932;28;20032;-65
2023/06/11 10:16:35;;;;;;;4.18;3.20;;;30.30;72.30;;;;;;4176952;28;20091;-65
2023/06/11 10:18:36;;;;;;;4.65;3.47;;;30.30;71.80;;;;;;4188043;28;20472;-65
2023/06/11 10:20:37;;;;;;;5.57;3.10;;;30.30;69.60;;;;;;4174584;28;20025;-65
2023/06/11 10:22:38;;;;;;;4.70;3.30;;;30.40;70.00;;;;;;4178452;28;20094;-64
2023/06/11 10:24:40;;;;;;;5.68;3.35;;;30.40;69.90;;;;;;4187939;28;20380;-65
2023/06/11 10:26:40;;;;;;;4.40;2.90;;;30.40;69.70;;;;;;4184370;28;20040;-64
2023/06/11 10:28:49;;;;;;;4.10;2.85;;;30.30;70.00;;;;;;4185292;28;20487;-65
2023/06/11 10:30:53;;;;;;;3.83;2.88;;;30.20;69.40;;;;;;4176090;28;20420;-67
2023/06/11 10:32:56;;;;;;;3.20;2.90;;;30.20;70.20;;;;;;4172577;28;20044;-65
2023/06/11 10:35:03;;;;;;;3.65;2.83;;;30.30;70.70;;;;;;4174843;28;20384;-66